createdAt,value
2023-04-09T00:00:17.661Z,10.35
2023-04-09T00:02:44.762Z,9.95
2023-04-09T00:05:11.619Z,6.75
2023-04-09T00:07:38.361Z,7.15
2023-04-09T00:10:06.764Z,9.07
2023-04-09T00:12:33.491Z,8.20
2023-04-09T00:15:00.342Z,8.20
2023-04-09T00:17:27.094Z,7.80
2023-04-09T00:19:53.767Z,8.73
2023-04-09T00:22:20.688Z,8.13
2023-04-09T00:24:47.414Z,7.65
2023-04-09T00:27:14.142Z,7.32
2023-04-09T00:29:41.020Z,8.82
2023-04-09T00:32:07.813Z,9.70
2023-04-09T00:34:34.855Z,10.55
2023-04-09T00:37:01.544Z,10.23
2023-04-09T00:39:28.253Z,10.75
2023-04-09T00:41:59.798Z,8.52
2023-04-09T00:44:26.460Z,10.48
2023-04-09T00:46:54.726Z,9.52
2023-04-09T00:49:22.042Z,10.13
2023-04-09T00:51:49.005Z,9.68
2023-04-09T00:54:16.184Z,11.30
2023-04-09T00:56:43.906Z,11.10
2023-04-09T00:59:10.694Z,10.55
2023-04-09T01:01:37.577Z,9.45
2023-04-09T01:04:04.996Z,11.45
2023-04-09T01:06:54.987Z,12.18
2023-04-09T01:09:31.018Z,11.77
2023-04-09T01:12:23.957Z,11.45
2023-04-09T01:15:07.345Z,11.30
2023-04-09T01:17:52.884Z,11.30
2023-04-09T01:20:55.505Z,10.85
2023-04-09T01:23:30.108Z,11.98
2023-04-09T01:26:22.726Z,13.77
2023-04-09T01:28:56.008Z,14.68
2023-04-09T01:31:28.860Z,17.02
2023-04-09T01:33:56.896Z,16.90
2023-04-09T01:36:26.393Z,14.45
2023-04-09T01:38:55.982Z,14.88
2023-04-09T01:41:24.280Z,16.50
2023-04-09T01:43:51.967Z,14.77
2023-04-09T01:46:20.954Z,17.15
2023-04-09T01:48:48.581Z,15.98
2023-04-09T01:51:16.650Z,20.50
2023-04-09T01:53:43.650Z,15.60
2023-04-09T01:56:10.611Z,16.20
2023-04-09T01:58:37.376Z,24.60
2023-04-09T02:01:11.873Z,16.33
2023-04-09T02:03:56.663Z,15.60
2023-04-09T02:06:45.830Z,14.10
2023-04-09T02:09:13.929Z,15.90
2023-04-09T02:11:46.098Z,15.30
2023-04-09T02:14:13.276Z,18.15
2023-04-09T02:16:41.414Z,15.90
2023-04-09T02:19:08.475Z,15.23
2023-04-09T02:21:35.161Z,19.70
2023-04-09T02:24:01.840Z,18.90
2023-04-09T02:26:28.591Z,17.77
2023-04-09T02:28:55.353Z,17.38
2023-04-09T02:31:22.207Z,17.02
2023-04-09T02:33:49.001Z,19.52
2023-04-09T02:36:15.839Z,16.15
2023-04-09T02:38:43.128Z,20.58
2023-04-09T02:41:09.985Z,21.08
2023-04-09T02:43:36.945Z,18.50
2023-04-09T02:46:04.038Z,17.27
2023-04-09T02:48:31.390Z,17.52
2023-04-09T02:50:58.308Z,16.45
2023-04-09T02:53:25.921Z,16.58
2023-04-09T02:55:52.587Z,18.00
2023-04-09T02:58:19.296Z,15.02
2023-04-09T03:00:46.094Z,15.98
2023-04-09T03:03:13.053Z,17.88
2023-04-09T03:05:40.091Z,18.17
2023-04-09T03:08:06.792Z,14.38
2023-04-09T03:10:33.592Z,18.52
2023-04-09T03:13:00.368Z,16.60
2023-04-09T03:15:27.091Z,18.70
2023-04-09T03:17:53.843Z,20.50
2023-04-09T03:20:20.996Z,15.13
2023-04-09T03:22:47.742Z,16.58
2023-04-09T03:25:37.530Z,15.15
2023-04-09T03:28:11.704Z,19.95
2023-04-09T03:30:45.247Z,15.43
2023-04-09T03:33:13.247Z,17.90
2023-04-09T03:35:51.291Z,14.93
2023-04-09T03:38:24.232Z,15.48
2023-04-09T03:40:51.748Z,13.77
2023-04-09T03:43:18.463Z,16.85
2023-04-09T03:45:50.317Z,13.90
2023-04-09T03:48:22.593Z,16.08
2023-04-09T03:50:50.880Z,13.05
2023-04-09T03:53:24.790Z,12.35
2023-04-09T03:55:53.898Z,14.48
2023-04-09T03:58:26.123Z,14.73
2023-04-09T04:00:54.339Z,14.05
2023-04-09T04:03:32.409Z,14.40
2023-04-09T04:06:17.639Z,13.15
2023-04-09T04:09:02.609Z,13.23
2023-04-09T04:11:40.529Z,16.65
2023-04-09T04:14:07.319Z,11.40
2023-04-09T04:16:34.254Z,14.75
2023-04-09T04:19:03.218Z,12.93
2023-04-09T04:21:32.340Z,13.27
2023-04-09T04:24:01.942Z,15.77
2023-04-09T04:26:29.935Z,14.60
2023-04-09T04:28:57.091Z,13.48
2023-04-09T04:31:44.967Z,13.20
2023-04-09T04:34:13.400Z,15.13
2023-04-09T04:36:42.243Z,11.63
2023-04-09T04:39:09.062Z,14.55
2023-04-09T04:41:50.336Z,13.65
2023-04-09T04:44:24.063Z,13.10
2023-04-09T04:46:56.960Z,13.07
2023-04-09T04:49:23.829Z,11.65
2023-04-09T04:51:51.434Z,14.68
2023-04-09T04:54:18.441Z,13.40
2023-04-09T04:59:30.234Z,13.77
2023-04-09T05:02:02.488Z,10.45
2023-04-09T05:04:32.974Z,12.20
2023-04-09T05:07:00.384Z,14.05
2023-04-09T05:09:27.227Z,11.43
2023-04-09T05:12:04.277Z,13.68
2023-04-09T05:14:31.491Z,12.23
2023-04-09T05:16:58.337Z,12.07
2023-04-09T05:19:30.079Z,11.80
2023-04-09T05:22:01.047Z,16.83
2023-04-09T05:24:27.962Z,15.57
2023-04-09T05:26:54.868Z,12.43
2023-04-09T05:29:22.076Z,13.18
2023-04-09T05:31:48.770Z,12.98
2023-04-09T05:34:25.211Z,11.52
2023-04-09T05:36:54.541Z,14.38
2023-04-09T05:39:23.253Z,16.00
2023-04-09T05:41:52.310Z,13.88
2023-04-09T05:44:25.383Z,13.07
2023-04-09T05:46:58.744Z,11.43
2023-04-09T05:49:31.497Z,15.38
2023-04-09T05:51:59.207Z,13.63
2023-04-09T05:54:31.850Z,11.68
2023-04-09T05:56:59.010Z,13.23
2023-04-09T05:59:26.992Z,15.20
2023-04-09T06:01:54.035Z,11.32
2023-04-09T06:04:21.121Z,11.27
2023-04-09T06:06:48.111Z,13.68
2023-04-09T06:09:14.882Z,10.68
2023-04-09T06:11:41.592Z,13.57
2023-04-09T06:14:08.430Z,12.90
2023-04-09T06:16:36.005Z,14.65
2023-04-09T06:19:02.642Z,10.73
2023-04-09T06:21:29.341Z,12.93
2023-04-09T06:23:56.054Z,12.50
2023-04-09T06:26:22.739Z,13.00
2023-04-09T06:28:49.514Z,13.95
2023-04-09T06:31:16.386Z,14.88
2023-04-09T06:33:43.061Z,12.82
2023-04-09T06:36:10.266Z,12.27
2023-04-09T06:38:37.044Z,11.98
2023-04-09T06:41:06.764Z,13.32
2023-04-09T06:43:33.489Z,12.18
2023-04-09T06:46:00.274Z,14.07
2023-04-09T06:48:27.023Z,11.35
2023-04-09T06:50:53.764Z,11.90
2023-04-09T06:53:20.539Z,10.50
2023-04-09T06:55:47.379Z,13.15
2023-04-09T06:58:14.073Z,12.93
2023-04-09T07:00:40.886Z,17.25
2023-04-09T07:03:09.202Z,14.00
2023-04-09T07:05:36.471Z,13.30
2023-04-09T07:08:04.158Z,12.65
2023-04-09T07:10:31.075Z,15.73
2023-04-09T07:12:57.887Z,12.48
2023-04-09T07:15:24.711Z,16.42
2023-04-09T07:17:51.558Z,13.07
2023-04-09T07:20:18.335Z,12.07
2023-04-09T07:22:45.260Z,15.82
2023-04-09T07:25:12.044Z,12.05
2023-04-09T07:27:38.788Z,13.50
2023-04-09T07:30:06.620Z,14.43
2023-04-09T07:32:33.381Z,14.60
2023-04-09T07:35:00.270Z,11.70
2023-04-09T07:37:27.078Z,15.52
2023-04-09T07:39:53.994Z,16.02
2023-04-09T07:42:20.813Z,14.70
2023-04-09T07:44:47.659Z,13.77
2023-04-09T07:47:14.573Z,12.98
2023-04-09T07:49:41.442Z,13.32
2023-04-09T07:52:08.281Z,13.43
2023-04-09T07:54:35.426Z,14.60
2023-04-09T07:57:03.030Z,14.02
2023-04-09T07:59:30.760Z,16.67
2023-04-09T08:01:57.819Z,16.73
2023-04-09T08:04:24.999Z,14.68
2023-04-09T08:06:51.914Z,12.00
2023-04-09T08:09:31.829Z,12.35
2023-04-09T08:12:14.456Z,15.80
2023-04-09T08:17:15.248Z,14.13
2023-04-09T08:19:59.023Z,14.20
2023-04-09T08:22:29.088Z,19.48
2023-04-09T08:25:03.033Z,17.33
2023-04-09T08:27:37.853Z,14.43
2023-04-09T08:30:08.437Z,13.80
2023-04-09T08:32:35.703Z,14.23
2023-04-09T08:35:02.593Z,15.93
2023-04-09T08:37:29.703Z,14.27
2023-04-09T08:39:56.577Z,14.73
2023-04-09T08:42:24.900Z,13.90
2023-04-09T08:44:51.747Z,13.52
2023-04-09T08:47:20.601Z,18.90
2023-04-09T08:49:48.966Z,16.98
2023-04-09T08:52:17.621Z,15.13
2023-04-09T08:54:44.418Z,13.95
2023-04-09T08:57:11.153Z,16.65
2023-04-09T08:59:38.016Z,17.00
2023-04-09T09:02:11.562Z,15.75
2023-04-09T09:04:49.284Z,16.48
2023-04-09T09:07:17.260Z,15.05
2023-04-09T09:09:52.559Z,15.52
2023-04-09T09:12:34.694Z,14.23
2023-04-09T09:15:01.827Z,18.00
2023-04-09T09:17:28.806Z,18.60
2023-04-09T09:19:55.650Z,17.00
2023-04-09T09:22:22.377Z,15.85
2023-04-09T09:24:50.669Z,15.55
2023-04-09T09:27:36.360Z,18.42
2023-04-09T09:30:07.714Z,14.02
2023-04-09T09:32:34.827Z,17.65
2023-04-09T09:35:04.781Z,14.82
2023-04-09T09:37:32.452Z,14.60
2023-04-09T09:40:00.207Z,16.20
2023-04-09T09:42:27.526Z,14.57
2023-04-09T09:44:55.349Z,15.35
2023-04-09T09:47:23.495Z,15.45
2023-04-09T09:49:51.246Z,16.73
2023-04-09T09:52:24.488Z,13.50
2023-04-09T09:54:56.545Z,16.42
2023-04-09T09:57:27.110Z,15.07
2023-04-09T10:00:09.176Z,19.42
2023-04-09T10:02:44.360Z,13.88
2023-04-09T10:05:11.795Z,13.38
2023-04-09T10:07:39.085Z,15.23
2023-04-09T10:10:09.514Z,15.65
2023-04-09T10:12:36.505Z,13.98
2023-04-09T10:15:07.465Z,14.80
2023-04-09T10:17:34.246Z,16.95
2023-04-09T10:20:36.537Z,14.90
2023-04-09T10:23:09.427Z,12.45
2023-04-09T10:25:36.231Z,13.50
2023-04-09T10:28:14.471Z,16.48
2023-04-09T10:30:41.214Z,13.20
2023-04-09T10:33:10.173Z,16.67
2023-04-09T10:35:37.042Z,12.13
2023-04-09T10:38:09.905Z,12.27
2023-04-09T10:40:42.468Z,13.95
2023-04-09T10:43:11.035Z,15.50
2023-04-09T10:45:42.625Z,13.05
2023-04-09T10:48:14.084Z,14.38
2023-04-09T10:50:44.618Z,12.20
2023-04-09T10:53:24.924Z,13.48
2023-04-09T10:55:53.619Z,12.80
2023-04-09T10:58:21.111Z,15.00
2023-04-09T11:00:49.594Z,12.63
2023-04-09T11:03:20.974Z,11.02
2023-04-09T11:05:54.009Z,11.95
2023-04-09T11:08:22.063Z,12.25
2023-04-09T11:10:51.784Z,13.05
2023-04-09T11:13:21.287Z,12.27
2023-04-09T11:15:48.126Z,12.95
2023-04-09T11:18:22.609Z,12.10
2023-04-09T11:20:49.717Z,10.85
2023-04-09T11:23:17.682Z,13.80
2023-04-09T11:25:49.711Z,13.63
2023-04-09T11:28:16.724Z,11.88
2023-04-09T11:30:43.913Z,13.32
2023-04-09T11:33:20.224Z,14.00
2023-04-09T11:36:10.343Z,15.15
2023-04-09T11:39:07.356Z,10.57
2023-04-09T11:41:35.826Z,11.68
2023-04-09T11:44:11.635Z,11.27
2023-04-09T11:46:39.397Z,12.93
2023-04-09T11:49:06.915Z,11.48
2023-04-09T11:51:35.440Z,11.82
2023-04-09T11:54:05.834Z,13.90
2023-04-09T11:56:33.205Z,10.55
2023-04-09T11:59:00.729Z,14.43
2023-04-09T12:01:34.104Z,12.30
2023-04-09T12:06:28.549Z,13.27
2023-04-09T12:08:59.289Z,13.55
2023-04-09T12:11:31.625Z,11.88
2023-04-09T12:14:02.983Z,11.88
2023-04-09T12:16:36.168Z,11.40
2023-04-09T12:19:10.447Z,13.90
2023-04-09T12:21:51.109Z,9.55
2023-04-09T12:24:20.222Z,12.57
2023-04-09T12:26:47.636Z,12.32
2023-04-09T12:29:15.816Z,10.30
2023-04-09T12:31:43.115Z,12.27
2023-04-09T12:34:10.075Z,10.65
2023-04-09T12:36:39.565Z,11.40
2023-04-09T12:39:06.393Z,10.32
2023-04-09T12:41:33.078Z,10.52
2023-04-09T12:44:00.128Z,12.85
2023-04-09T12:46:28.225Z,12.07
2023-04-09T12:48:54.956Z,13.93
2023-04-09T12:51:21.648Z,11.68
2023-04-09T12:53:48.357Z,9.50
2023-04-09T12:56:15.372Z,10.00
2023-04-09T12:58:42.097Z,12.48
2023-04-09T13:01:08.837Z,11.57
2023-04-09T13:03:35.876Z,12.40
2023-04-09T13:06:02.771Z,11.57
2023-04-09T13:08:29.930Z,11.55
2023-04-09T13:10:56.643Z,11.70
2023-04-09T13:13:23.573Z,13.45
2023-04-09T13:15:50.398Z,12.20
2023-04-09T13:18:17.063Z,9.40
2023-04-09T13:20:43.859Z,8.98
2023-04-09T13:23:10.713Z,11.93
2023-04-09T13:25:37.856Z,10.02
2023-04-09T13:28:04.647Z,13.00
2023-04-09T13:30:31.956Z,10.65
2023-04-09T13:32:58.796Z,14.20
2023-04-09T13:35:25.540Z,11.43
2023-04-09T13:37:52.201Z,13.32
2023-04-09T13:40:18.915Z,15.52
2023-04-09T13:42:45.659Z,13.20
2023-04-09T13:45:12.507Z,12.70
2023-04-09T13:47:39.293Z,13.27
2023-04-09T13:50:10.301Z,11.52
2023-04-09T13:52:37.146Z,11.10
2023-04-09T13:55:04.975Z,13.88
2023-04-09T13:57:31.842Z,11.68
2023-04-09T14:00:01.817Z,9.43
2023-04-09T14:02:32.480Z,12.52
2023-04-09T14:04:59.909Z,12.35
2023-04-09T14:07:26.640Z,11.05
2023-04-09T14:09:53.317Z,14.00
2023-04-09T14:12:20.200Z,11.98
2023-04-09T14:14:47.043Z,11.32
2023-04-09T14:17:13.746Z,12.80
2023-04-09T14:19:40.457Z,13.70
2023-04-09T14:22:08.751Z,13.18
2023-04-09T14:24:39.873Z,14.45
2023-04-09T14:27:07.643Z,10.45
2023-04-09T14:29:34.618Z,12.63
2023-04-09T14:32:01.453Z,13.30
2023-04-09T14:34:31.306Z,13.80
2023-04-09T14:36:58.135Z,11.88
2023-04-09T14:39:25.127Z,16.13
2023-04-09T14:41:52.490Z,14.40
2023-04-09T14:44:19.258Z,13.48
2023-04-09T14:46:46.081Z,16.88
2023-04-09T14:49:13.052Z,13.65
2023-04-09T14:51:39.785Z,15.25
2023-04-09T14:54:06.640Z,14.40
2023-04-09T14:56:33.412Z,15.77
2023-04-09T14:59:00.621Z,13.82
2023-04-09T15:01:28.023Z,16.15
2023-04-09T15:03:55.324Z,14.98
2023-04-09T15:06:22.345Z,14.30
2023-04-09T15:08:49.130Z,18.92
2023-04-09T15:11:20.242Z,16.67
2023-04-09T15:13:47.068Z,14.45
2023-04-09T15:16:27.777Z,16.08
2023-04-09T15:18:57.488Z,14.18
2023-04-09T15:21:24.352Z,14.70
2023-04-09T15:23:51.759Z,18.17
2023-04-09T15:26:18.636Z,15.55
2023-04-09T15:28:46.136Z,13.88
2023-04-09T15:31:13.457Z,14.32
2023-04-09T15:33:43.749Z,12.98
2023-04-09T15:36:10.872Z,15.02
2023-04-09T15:38:37.690Z,19.55
2023-04-09T15:41:05.630Z,15.65
2023-04-09T15:43:32.287Z,13.88
2023-04-09T15:45:59.076Z,16.42
2023-04-09T15:48:25.928Z,13.88
2023-04-09T15:50:52.607Z,12.80
2023-04-09T15:53:23.646Z,12.80
2023-04-09T15:55:50.332Z,14.23
2023-04-09T15:58:17.170Z,12.68
2023-04-09T16:00:43.858Z,13.13
2023-04-09T16:03:10.571Z,13.75
2023-04-09T16:05:37.211Z,14.40
2023-04-09T16:08:04.132Z,16.05
2023-04-09T16:10:30.940Z,12.43
2023-04-09T16:12:57.717Z,15.30
2023-04-09T16:15:24.686Z,13.27
2023-04-09T16:17:51.384Z,10.90
2023-04-09T16:20:18.208Z,12.45
2023-04-09T16:22:44.970Z,12.93
2023-04-09T16:25:11.597Z,11.48
2023-04-09T16:27:38.349Z,14.15
2023-04-09T16:30:05.976Z,14.68
2023-04-09T16:32:32.748Z,13.45
2023-04-09T16:35:00.703Z,13.18
2023-04-09T16:37:27.993Z,17.25
2023-04-09T16:39:54.862Z,15.48
2023-04-09T16:42:21.707Z,13.27
2023-04-09T16:44:48.977Z,13.60
2023-04-09T16:47:15.709Z,13.40
2023-04-09T16:49:42.335Z,14.25
2023-04-09T16:52:09.048Z,11.05
2023-04-09T16:54:35.826Z,11.18
2023-04-09T16:57:02.873Z,12.55
2023-04-09T16:59:29.570Z,11.05
2023-04-09T17:01:56.426Z,12.85
2023-04-09T17:04:23.265Z,13.15
2023-04-09T17:06:50.306Z,13.68
2023-04-09T17:09:16.951Z,12.35
2023-04-09T17:11:44.598Z,13.05
2023-04-09T17:14:11.444Z,10.38
2023-04-09T17:16:38.224Z,12.23
2023-04-09T17:19:05.067Z,13.82
2023-04-09T17:21:31.912Z,11.43
2023-04-09T17:23:58.708Z,11.80
2023-04-09T17:26:25.622Z,11.55
2023-04-09T17:28:52.651Z,12.57
2023-04-09T17:31:21.989Z,10.90
2023-04-09T17:33:48.793Z,10.98
2023-04-09T17:36:19.213Z,13.55
2023-04-09T17:38:47.300Z,12.98
2023-04-09T17:41:14.044Z,10.45
2023-04-09T17:43:41.874Z,10.27
2023-04-09T17:46:12.289Z,9.60
2023-04-09T17:49:07.065Z,9.52
2023-04-09T17:51:33.828Z,8.50
2023-04-09T17:54:01.147Z,10.75
2023-04-09T17:56:27.868Z,10.90
2023-04-09T17:58:54.652Z,11.65
2023-04-09T18:01:21.445Z,9.38
2023-04-09T18:03:48.696Z,9.88
2023-04-09T18:06:15.698Z,9.82
2023-04-09T18:08:43.362Z,9.52
2023-04-09T18:11:13.370Z,10.18
2023-04-09T18:13:40.870Z,11.13
2023-04-09T18:16:12.183Z,8.48
2023-04-09T18:18:39.260Z,9.93
2023-04-09T18:21:06.354Z,9.70
2023-04-09T18:23:33.555Z,10.50
2023-04-09T18:26:00.275Z,10.05
2023-04-09T18:28:27.929Z,9.57
2023-04-09T18:30:54.781Z,9.82
2023-04-09T18:33:21.684Z,9.45
2023-04-09T18:35:48.415Z,9.25
2023-04-09T18:38:15.127Z,8.93
2023-04-09T18:40:43.722Z,7.85
2023-04-09T18:43:12.344Z,7.40
2023-04-09T18:45:42.502Z,9.88
2023-04-09T18:48:09.214Z,7.97
2023-04-09T18:50:36.160Z,10.15
2023-04-09T18:53:03.715Z,7.72
2023-04-09T18:55:30.689Z,7.72
2023-04-09T18:57:57.501Z,9.32
2023-04-09T19:00:24.343Z,8.40
2023-04-09T19:02:51.621Z,9.63
2023-04-09T19:05:18.718Z,7.93
2023-04-09T19:07:45.517Z,10.85
2023-04-09T19:10:13.156Z,8.40
2023-04-09T19:12:46.554Z,6.68
2023-04-09T19:15:13.280Z,7.22
2023-04-09T19:17:40.302Z,7.40
2023-04-09T19:20:07.702Z,9.82
2023-04-09T19:22:34.459Z,10.65
2023-04-09T19:25:01.233Z,9.40
2023-04-09T19:27:28.505Z,9.18
2023-04-09T19:29:58.647Z,7.70
2023-04-09T19:32:25.799Z,8.95
2023-04-09T19:34:52.582Z,7.85
2023-04-09T19:37:19.374Z,10.98
2023-04-09T19:39:46.075Z,9.18
2023-04-09T19:42:12.767Z,8.13
2023-04-09T19:44:39.574Z,9.38
2023-04-09T19:47:06.402Z,8.00
2023-04-09T19:49:33.461Z,9.05
2023-04-09T19:52:00.273Z,8.40
2023-04-09T19:54:27.102Z,6.93
2023-04-09T19:56:53.828Z,8.95
2023-04-09T19:59:20.736Z,7.72
2023-04-09T20:01:48.511Z,8.15
2023-04-09T20:04:15.327Z,8.50
2023-04-09T20:06:43.200Z,8.50
2023-04-09T20:09:12.422Z,7.03
2023-04-09T20:11:39.541Z,8.27
2023-04-09T20:14:06.306Z,8.05
2023-04-09T20:16:33.161Z,7.25
2023-04-09T20:18:59.836Z,7.93
2023-04-09T20:21:26.554Z,7.80
2023-04-09T20:23:53.251Z,8.25
2023-04-09T20:26:20.091Z,7.70
2023-04-09T20:28:47.491Z,7.90
2023-04-09T20:31:14.209Z,8.77
2023-04-09T20:33:41.518Z,6.32
2023-04-09T20:36:18.756Z,7.25
2023-04-09T20:38:45.717Z,6.10
2023-04-09T20:41:12.424Z,8.25
2023-04-09T20:43:39.297Z,7.68
2023-04-09T20:46:06.252Z,7.70
2023-04-09T20:48:33.098Z,6.75
2023-04-09T20:50:59.755Z,8.45
2023-04-09T20:53:26.551Z,7.40
2023-04-09T20:55:54.443Z,6.90
2023-04-09T20:58:21.291Z,6.93
2023-04-09T21:00:48.037Z,7.40
2023-04-09T21:03:15.919Z,9.75
2023-04-09T21:05:42.732Z,7.25
2023-04-09T21:08:14.601Z,7.45
2023-04-09T21:10:41.341Z,5.93
2023-04-09T21:13:08.042Z,7.65
2023-04-09T21:15:34.745Z,6.35
2023-04-09T21:18:01.441Z,7.75
2023-04-09T21:20:28.234Z,6.68
2023-04-09T21:22:54.967Z,6.28
2023-04-09T21:25:21.683Z,7.85
2023-04-09T21:27:48.401Z,6.70
2023-04-09T21:30:15.446Z,6.47
2023-04-09T21:32:42.254Z,7.03
2023-04-09T21:35:09.131Z,7.78
2023-04-09T21:37:37.562Z,7.10
2023-04-09T21:40:05.603Z,8.95
2023-04-09T21:42:32.474Z,6.78
2023-04-09T21:44:59.300Z,7.35
2023-04-09T21:47:27.446Z,7.05
2023-04-09T21:49:54.275Z,5.50
2023-04-09T21:52:20.993Z,6.35
2023-04-09T21:54:47.707Z,5.93
2023-04-09T21:57:14.373Z,8.13
2023-04-09T21:59:41.414Z,6.97
2023-04-09T22:02:09.280Z,8.80
2023-04-09T22:04:36.070Z,6.95
2023-04-09T22:07:03.516Z,7.22
2023-04-09T22:09:31.230Z,6.18
2023-04-09T22:11:58.748Z,6.90
2023-04-09T22:14:29.670Z,5.70
2023-04-09T22:16:58.285Z,5.60
2023-04-09T22:19:26.025Z,5.57
2023-04-09T22:21:53.021Z,6.65
2023-04-09T22:24:20.011Z,7.90
2023-04-09T22:26:46.987Z,6.50
2023-04-09T22:29:14.017Z,5.85
2023-04-09T22:31:41.052Z,6.32
2023-04-09T22:34:20.167Z,7.55
2023-04-09T22:36:48.101Z,7.03
2023-04-09T22:39:14.815Z,7.68
2023-04-09T22:41:41.590Z,6.55
2023-04-09T22:44:09.437Z,5.95
2023-04-09T22:46:36.670Z,7.20
2023-04-09T22:49:05.582Z,6.30
2023-04-09T22:51:34.537Z,6.10
2023-04-09T22:54:02.208Z,5.53
2023-04-09T22:56:31.476Z,6.45
2023-04-09T22:58:58.265Z,6.65
2023-04-09T23:01:25.192Z,8.48
2023-04-09T23:03:52.126Z,5.70
2023-04-09T23:06:18.962Z,5.72
2023-04-09T23:08:45.745Z,7.28
2023-04-09T23:11:12.474Z,7.50
2023-04-09T23:13:39.407Z,5.57
2023-04-09T23:16:07.364Z,6.72
2023-04-09T23:18:35.708Z,5.10
2023-04-09T23:21:09.715Z,5.28
2023-04-09T23:23:38.004Z,6.15
2023-04-09T23:26:05.305Z,6.07
2023-04-09T23:28:32.115Z,5.90
2023-04-09T23:30:58.937Z,4.88
2023-04-09T23:33:25.955Z,5.07
2023-04-09T23:35:52.830Z,5.88
2023-04-09T23:38:19.768Z,7.07
2023-04-09T23:40:48.043Z,6.68
2023-04-09T23:43:14.806Z,6.03
2023-04-09T23:45:42.410Z,5.85
2023-04-09T23:48:09.314Z,5.15
2023-04-09T23:50:42.072Z,6.95
2023-04-09T23:53:09.084Z,5.88
2023-04-09T23:55:41.324Z,7.32
2023-04-09T23:58:09.402Z,5.73
